Time;durP1;ratioP1;P1;durP2;ratioP2;P2;SDS_P1;SDS_P2;PMS_P1;PMS_P2;Temp;Humidity;BMP_temperature;BMP_pressure;BME280_temperature;BME280_humidity;BME280_pressure;Samples;Min_cycle;Max_cycle;Signal;HPM_P1;HPM_P2
2021/01/19 05:43:10;;;;;;;3.40;3.10;;;4.20;46.00;;;;;;668477;23;21820;-89
2021/01/19 05:45:36;;;;;;;4.20;3.00;;;3.90;44.80;;;;;;4903310;29;20274;-90
2021/01/19 05:48:13;;;;;;;4.10;3.30;;;4.30;45.40;;;;;;4906590;29;20269;-90
2021/01/19 05:50:40;;;;;;;5.38;3.80;;;4.10;46.10;;;;;;4907199;29;20411;-90
2021/01/19 05:53:16;;;;;;;7.22;4.00;;;4.00;45.20;;;;;;4906354;29;20171;-89
2021/01/19 05:55:47;;;;;;;4.10;3.67;;;3.90;45.30;;;;;;4907532;29;20174;-93
2021/01/19 05:58:14;;;;;;;5.57;3.65;;;4.30;45.60;;;;;;4907629;29;20266;-92
2021/01/19 06:00:41;;;;;;;4.53;3.65;;;4.00;45.50;;;;;;4928117;29;20199;-93
2021/01/19 06:03:28;;;;;;;3.63;3.13;;;3.90;45.30;;;;;;4900668;29;20279;-92
2021/01/19 06:05:53;;;;;;;5.47;3.92;;;4.00;45.80;;;;;;4910691;29;20270;-92
2021/01/19 06:08:23;;;;;;;3.23;2.67;;;3.90;45.90;;;;;;4915333;29;20188;-93
2021/01/19 06:10:49;;;;;;;4.75;4.25;;;3.40;45.40;;;;;;4902376;29;20183;-92
2021/01/19 06:13:19;;;;;;;3.67;3.37;;;3.90;45.90;;;;;;4903071;29;20189;-92
2021/01/19 06:15:44;;;;;;;2.80;2.55;;;3.90;46.20;;;;;;4911370;29;20435;-91
2021/01/19 06:18:11;;;;;;;4.80;4.00;;;3.80;45.60;;;;;;4921812;29;20175;-90
2021/01/19 06:20:41;;;;;;;4.00;3.45;;;4.20;45.60;;;;;;4912660;29;20195;-90
2021/01/19 06:23:09;;;;;;;3.70;2.90;;;3.90;45.00;;;;;;4887117;29;20163;-90
2021/01/19 06:25:36;;;;;;;4.40;4.03;;;3.70;45.50;;;;;;4902987;29;20509;-91
2021/01/19 06:28:09;;;;;;;4.85;3.20;;;4.50;45.50;;;;;;4922491;29;20163;-90
2021/01/19 06:30:35;;;;;;;4.60;3.00;;;4.00;44.70;;;;;;4921022;29;20270;-91
2021/01/19 06:33:02;;;;;;;5.00;3.70;;;3.80;44.90;;;;;;4909395;29;20167;-91
2021/01/19 06:35:29;;;;;;;7.22;6.10;;;3.80;44.90;;;;;;4917771;29;20458;-90
2021/01/19 06:37:56;;;;;;;19.92;16.70;;;4.00;45.90;;;;;;4889829;29;20660;-91
2021/01/19 06:40:24;;;;;;;9.43;8.45;;;3.70;46.40;;;;;;4906494;29;20167;-93
2021/01/19 06:43:02;;;;;;;8.38;6.38;;;3.70;46.20;;;;;;4920566;29;20188;-93
2021/01/19 06:45:29;;;;;;;6.22;4.70;;;3.50;45.90;;;;;;4902500;29;20210;-91
2021/01/19 06:47:56;;;;;;;5.82;4.10;;;4.20;46.30;;;;;;4883443;29;20179;-90
2021/01/19 06:50:24;;;;;;;4.20;3.55;;;3.50;45.60;;;;;;4874149;29;20258;-93
2021/01/19 06:53:23;;;;;;;4.82;3.80;;;3.70;45.70;;;;;;4891703;29;20177;-92
2021/01/19 06:55:52;;;;;;;5.55;4.05;;;3.80;45.30;;;;;;4868014;29;20201;-92
2021/01/19 06:58:53;;;;;;;4.55;3.90;;;2.90;45.10;;;;;;4873291;29;20666;-94
2021/01/19 07:01:25;;;;;;;4.75;3.35;;;3.40;47.00;;;;;;4862363;29;20188;-93
2021/01/19 07:04:25;;;;;;;3.80;3.10;;;3.40;47.20;;;;;;4905455;29;20158;-92
2021/01/19 07:10:14;;;;;;;6.18;4.55;;;3.30;47.20;;;;;;4909408;29;20171;-92
2021/01/19 07:16:02;;;;;;;5.47;3.70;;;3.20;47.50;;;;;;4909549;29;20179;-91
2021/01/19 07:19:05;;;;;;;5.57;4.50;;;3.10;47.60;;;;;;4891967;29;20645;-93
2021/01/19 07:25:12;;;;;;;16.05;14.50;;;3.00;47.80;;;;;;4853568;29;20198;-91
2021/01/19 07:31:17;;;;;;;6.45;4.25;;;2.90;47.80;;;;;;4858997;29;20165;-93
2021/01/19 07:37:32;;;;;;;5.93;5.32;;;3.10;47.70;;;;;;4850976;29;20591;-92
2021/01/19 07:39:58;;;;;;;4.18;3.78;;;2.90;46.90;;;;;;4835923;29;20173;-92
2021/01/19 07:42:24;;;;;;;4.65;4.00;;;3.20;48.10;;;;;;4835467;29;20226;-92
2021/01/19 07:51:47;;;;;;;18.92;17.10;;;2.90;48.30;;;;;;4928086;29;20183;-91
2021/01/19 07:57:35;;;;;;;7.93;6.10;;;3.10;48.90;;;;;;4930255;29;20191;-91
2021/01/19 08:03:28;;;;;;;5.38;4.78;;;3.00;48.60;;;;;;4931420;29;20178;-92
2021/01/19 08:09:46;;;;;;;5.50;4.80;;;3.30;48.10;;;;;;4931519;29;20234;-94
2021/01/19 08:12:15;;;;;;;6.80;6.07;;;3.20;47.30;;;;;;4922181;29;20168;-93
2021/01/19 08:35:29;;;;;;;5.60;5.07;;;4.10;45.80;;;;;;4925764;28;20266;-91
2021/01/19 08:37:57;;;;;;;5.70;4.53;;;4.10;44.50;;;;;;4911046;29;20213;-90
2021/01/19 09:36:26;;;;;;;5.15;4.53;;;6.00;38.60;;;;;;4927812;29;20222;-92
2021/01/19 09:38:58;;;;;;;4.27;3.87;;;6.00;38.00;;;;;;4930770;29;20183;-94
2021/01/19 09:41:25;;;;;;;7.53;4.57;;;6.10;38.00;;;;;;4916200;29;20426;-94
2021/01/19 09:43:54;;;;;;;5.00;4.45;;;6.10;39.00;;;;;;4931403;29;20155;-94
2021/01/19 09:46:30;;;;;;;6.95;4.47;;;5.30;40.60;;;;;;4915858;29;20190;-95
2021/01/19 09:49:01;;;;;;;6.05;5.45;;;5.70;40.80;;;;;;4917625;29;20174;-96
2021/01/19 09:51:28;;;;;;;6.57;5.28;;;5.80;39.00;;;;;;4917430;29;20180;-96
2021/01/19 09:58:05;;;;;;;5.68;5.15;;;6.60;39.10;;;;;;4936478;29;20162;-96
2021/01/19 10:00:41;;;;;;;5.63;4.78;;;6.40;38.90;;;;;;4921972;29;20447;-96
2021/01/19 10:03:27;;;;;;;7.28;5.22;;;6.50;38.20;;;;;;4897679;29;20176;-96
2021/01/19 10:09:22;;;;;;;8.52;5.78;;;6.80;38.00;;;;;;4898044;29;20160;-94
2021/01/19 10:15:15;;;;;;;6.10;5.47;;;6.80;36.90;;;;;;4896995;29;20601;-96
2021/01/19 10:21:05;;;;;;;7.03;5.00;;;6.70;37.30;;;;;;4896963;29;20216;-96
2021/01/19 10:50:41;;;;;;;5.30;4.75;;;7.90;35.70;;;;;;4926093;29;20235;-89
2021/01/19 10:53:07;;;;;;;5.43;4.93;;;8.10;35.10;;;;;;4924967;29;20206;-88
2021/01/19 10:55:35;;;;;;;5.93;4.70;;;8.10;34.40;;;;;;4911503;29;20211;-90
2021/01/19 10:58:03;;;;;;;10.25;4.60;;;8.10;34.20;;;;;;4902870;29;20191;-90
2021/01/19 11:00:35;;;;;;;6.57;4.32;;;8.50;34.40;;;;;;4887017;29;20168;-90
2021/01/19 11:03:01;;;;;;;6.30;5.00;;;8.20;34.30;;;;;;4886455;29;20163;-88
2021/01/19 11:05:30;;;;;;;7.10;5.18;;;8.40;33.90;;;;;;4885855;29;20170;-88
2021/01/19 11:07:56;;;;;;;5.07;4.63;;;8.40;34.30;;;;;;4885715;29;20267;-90
2021/01/19 11:10:34;;;;;;;5.70;4.88;;;8.50;33.40;;;;;;4885656;29;20507;-89
2021/01/19 11:12:59;;;;;;;5.93;5.20;;;8.60;33.30;;;;;;4887430;29;20186;-90
2021/01/19 11:15:30;;;;;;;9.03;5.50;;;8.70;33.90;;;;;;4893771;29;20195;-87
2021/01/19 11:17:56;;;;;;;5.43;4.15;;;8.80;33.50;;;;;;4885922;29;20611;-87
2021/01/19 11:20:22;;;;;;;8.10;5.17;;;8.70;33.20;;;;;;4885515;29;20164;-88
2021/01/19 11:22:48;;;;;;;6.00;5.40;;;8.70;33.10;;;;;;4886479;29;20172;-93
2021/01/19 11:25:22;;;;;;;6.47;4.90;;;8.40;33.30;;;;;;4886150;29;20420;-90
2021/01/19 11:27:49;;;;;;;6.53;5.72;;;9.10;33.90;;;;;;4885097;29;20183;-90
2021/01/19 11:30:17;;;;;;;8.00;6.35;;;8.50;33.50;;;;;;4886076;29;20168;-89
2021/01/19 11:32:43;;;;;;;6.32;5.47;;;8.30;34.10;;;;;;4886244;29;20631;-89
2021/01/19 11:35:16;;;;;;;11.13;7.70;;;8.20;34.80;;;;;;4886095;29;20251;-90
2021/01/19 11:37:41;;;;;;;10.90;7.05;;;8.40;34.50;;;;;;4885375;29;20250;-89
2021/01/19 11:40:14;;;;;;;7.30;5.90;;;7.80;35.00;;;;;;4885125;29;20194;-89
2021/01/19 11:42:39;;;;;;;5.45;4.95;;;7.70;35.70;;;;;;4885880;29;20171;-88
2021/01/19 11:45:06;;;;;;;6.27;4.90;;;7.60;36.80;;;;;;4896692;29;20246;-90
2021/01/19 11:47:32;;;;;;;5.82;5.25;;;7.40;36.50;;;;;;4886492;29;20536;-94
2021/01/19 11:49:57;;;;;;;5.57;4.10;;;6.80;36.60;;;;;;4892042;29;20230;-90
2021/01/19 11:52:23;;;;;;;5.83;4.00;;;7.30;37.50;;;;;;4893570;29;20423;-92
2021/01/19 11:54:49;;;;;;;5.00;4.50;;;7.10;37.80;;;;;;4892108;29;20594;-93
2021/01/19 11:57:15;;;;;;;4.70;3.90;;;6.50;37.40;;;;;;4893480;29;20508;-94
2021/01/19 11:59:41;;;;;;;7.20;4.80;;;6.20;37.20;;;;;;4910632;29;20658;-93
2021/01/19 12:05:42;;;;;;;7.75;4.15;;;6.70;39.80;;;;;;4923400;29;20587;-96
2021/01/19 12:08:09;;;;;;;6.60;4.13;;;6.40;40.50;;;;;;4907016;29;20175;-93
2021/01/19 12:10:34;;;;;;;7.30;5.78;;;6.10;40.90;;;;;;4901501;29;20179;-89
2021/01/19 12:13:00;;;;;;;6.40;4.20;;;6.20;42.00;;;;;;4897385;29;20237;-89
2021/01/19 12:15:26;;;;;;;3.90;3.40;;;6.40;42.30;;;;;;4901437;29;20199;-91
2021/01/19 12:17:52;;;;;;;7.30;4.30;;;5.90;42.00;;;;;;4890359;29;20170;-90
2021/01/19 12:20:18;;;;;;;4.63;4.22;;;5.80;42.20;;;;;;4919822;29;20187;-90
2021/01/19 12:22:44;;;;;;;6.93;5.23;;;5.80;42.50;;;;;;4903944;29;20174;-90
2021/01/19 12:25:11;;;;;;;8.70;4.35;;;5.70;41.90;;;;;;4891961;29;20180;-90
2021/01/19 12:27:36;;;;;;;3.88;3.42;;;6.00;41.20;;;;;;4896810;29;20184;-90
2021/01/19 12:30:04;;;;;;;6.67;3.40;;;6.00;41.50;;;;;;4890890;29;20255;-92
2021/01/19 12:32:30;;;;;;;5.45;4.22;;;6.10;41.60;;;;;;4903906;29;20201;-92
2021/01/19 12:34:55;;;;;;;3.73;3.00;;;6.30;40.70;;;;;;4894803;29;20208;-92
2021/01/19 12:37:22;;;;;;;4.70;3.10;;;6.30;40.50;;;;;;4885941;29;20235;-92
2021/01/19 12:39:49;;;;;;;3.20;2.88;;;6.30;40.70;;;;;;4898148;29;20211;-92
2021/01/19 12:42:15;;;;;;;5.13;2.40;;;6.20;40.50;;;;;;4893305;29;20179;-92
2021/01/19 12:44:41;;;;;;;3.20;2.90;;;6.20;40.60;;;;;;4903432;29;20217;-92
2021/01/19 12:47:08;;;;;;;3.03;2.63;;;6.60;40.20;;;;;;4889042;29;20180;-90
2021/01/19 12:49:35;;;;;;;3.17;2.92;;;6.40;39.40;;;;;;4888184;29;20227;-89
2021/01/19 12:52:06;;;;;;;2.85;2.38;;;6.30;41.00;;;;;;4896925;29;20176;-90
2021/01/19 12:54:35;;;;;;;3.50;2.80;;;6.20;40.10;;;;;;4894993;29;20206;-91
2021/01/19 12:57:01;;;;;;;2.30;2.10;;;6.10;41.20;;;;;;4889667;29;20178;-89
2021/01/19 12:59:27;;;;;;;4.17;2.87;;;6.10;40.60;;;;;;4902256;29;20273;-90
2021/01/19 13:02:00;;;;;;;3.90;2.75;;;6.30;40.90;;;;;;4896267;29;20416;-90
2021/01/19 13:04:34;;;;;;;2.95;2.75;;;6.40;40.90;;;;;;4890263;29;20192;-90
2021/01/19 13:07:00;;;;;;;3.58;2.45;;;6.20;41.40;;;;;;4903802;29;20179;-91
2021/01/19 13:09:34;;;;;;;4.20;3.50;;;6.40;41.00;;;;;;4886772;29;20183;-90
2021/01/19 13:12:00;;;;;;;3.00;2.75;;;6.10;41.60;;;;;;4889329;29;20277;-88
2021/01/19 13:14:30;;;;;;;3.67;3.37;;;6.10;42.00;;;;;;4890568;29;20290;-89
2021/01/19 13:16:59;;;;;;;4.40;3.45;;;5.60;42.00;;;;;;4884844;29;20422;-88
2021/01/19 13:19:25;;;;;;;3.78;2.58;;;5.50;42.90;;;;;;4884856;29;20172;-88
2021/01/19 13:21:50;;;;;;;4.20;3.17;;;5.70;44.10;;;;;;4886818;29;20243;-89
2021/01/19 13:24:17;;;;;;;4.20;2.93;;;6.10;44.60;;;;;;4902305;29;20428;-89
2021/01/19 13:26:43;;;;;;;4.05;3.35;;;5.90;44.00;;;;;;4885761;29;20180;-88
2021/01/19 13:29:15;;;;;;;3.60;3.20;;;6.10;44.10;;;;;;4886371;29;20179;-89
2021/01/19 13:31:41;;;;;;;4.95;4.43;;;6.30;44.50;;;;;;4888924;29;20183;-90
2021/01/19 13:34:07;;;;;;;7.47;3.80;;;6.00;44.20;;;;;;4892134;29;20192;-90
2021/01/19 13:36:32;;;;;;;6.50;2.57;;;6.20;44.80;;;;;;4889136;29;20495;-91
2021/01/19 13:39:08;;;;;;;4.60;3.40;;;6.30;45.20;;;;;;4895878;29;20436;-90
2021/01/19 13:41:34;;;;;;;4.95;2.42;;;6.60;45.40;;;;;;4886326;29;20163;-90
2021/01/19 13:44:25;;;;;;;3.17;2.87;;;6.70;44.80;;;;;;4884961;29;20254;-89
2021/01/19 13:46:51;;;;;;;2.80;2.60;;;6.60;45.00;;;;;;4884996;29;20711;-89
2021/01/19 13:49:17;;;;;;;3.75;3.25;;;6.60;44.80;;;;;;4884888;29;20736;-91
2021/01/19 13:51:47;;;;;;;3.53;2.43;;;6.60;45.20;;;;;;4885186;29;20263;-91
2021/01/19 13:54:13;;;;;;;3.40;2.03;;;6.60;44.80;;;;;;4884646;29;20191;-91
2021/01/19 13:56:46;;;;;;;5.00;2.22;;;6.50;44.70;;;;;;4885412;29;20506;-90
2021/01/19 13:59:12;;;;;;;1.98;1.83;;;6.70;45.30;;;;;;4884655;29;20171;-90
2021/01/19 14:01:49;;;;;;;3.17;1.97;;;6.50;46.00;;;;;;4884777;29;20163;-88
2021/01/19 14:04:16;;;;;;;3.58;2.50;;;6.90;46.10;;;;;;4886462;29;20191;-87
2021/01/19 14:06:45;;;;;;;2.22;2.00;;;5.70;45.70;;;;;;4889442;29;20175;-91
2021/01/19 14:09:20;;;;;;;2.47;2.28;;;6.40;46.90;;;;;;4889002;29;20172;-88
2021/01/19 14:11:46;;;;;;;5.75;2.72;;;6.40;46.00;;;;;;4889737;29;20223;-91
2021/01/19 14:14:19;;;;;;;3.10;2.10;;;6.40;45.90;;;;;;4888194;29;20585;-91
2021/01/19 14:16:46;;;;;;;2.50;1.90;;;6.40;46.70;;;;;;4887493;29;20906;-89
2021/01/19 14:19:36;;;;;;;1.88;1.60;;;6.30;45.40;;;;;;4888372;29;20674;-90
2021/01/19 14:22:02;;;;;;;3.72;2.08;;;6.30;46.00;;;;;;4888176;29;20164;-89
2021/01/19 14:24:29;;;;;;;3.22;2.28;;;6.40;45.20;;;;;;4886900;29;20179;-89
2021/01/19 14:26:58;;;;;;;3.85;2.75;;;6.40;45.50;;;;;;4887166;29;20196;-91
2021/01/19 14:29:24;;;;;;;3.13;2.80;;;6.60;45.80;;;;;;4887985;29;20611;-91
2021/01/19 14:31:50;;;;;;;2.10;2.00;;;6.50;44.80;;;;;;4887647;29;20179;-92
2021/01/19 14:34:42;;;;;;;5.35;2.65;;;6.90;44.40;;;;;;4886945;29;20195;-91
2021/01/19 14:37:07;;;;;;;2.10;1.90;;;6.50;44.50;;;;;;4887529;29;20163;-91
2021/01/19 14:39:56;;;;;;;2.43;1.53;;;6.00;43.40;;;;;;4887512;29;20202;-90
2021/01/19 14:42:22;;;;;;;2.60;1.85;;;6.60;44.80;;;;;;4888045;29;20168;-89
2021/01/19 14:44:57;;;;;;;4.70;3.67;;;6.30;43.40;;;;;;4887092;29;20178;-91
2021/01/19 14:47:23;;;;;;;6.90;3.28;;;7.00;43.90;;;;;;4887556;29;20670;-90
2021/01/19 14:49:48;;;;;;;2.25;1.92;;;7.00;43.10;;;;;;4892959;29;20227;-90
2021/01/19 14:52:17;;;;;;;1.73;1.47;;;6.80;43.90;;;;;;4903057;29;20235;-91
2021/01/19 14:54:49;;;;;;;1.63;1.40;;;6.80;43.20;;;;;;4905367;29;20211;-91
2021/01/19 14:57:17;;;;;;;2.45;1.42;;;6.30;42.60;;;;;;4907340;29;20175;-91
2021/01/19 14:59:42;;;;;;;1.95;1.67;;;6.50;43.20;;;;;;4919192;29;20637;-91
2021/01/19 15:02:18;;;;;;;1.53;1.30;;;6.50;43.00;;;;;;4924189;29;20166;-91
2021/01/19 15:04:44;;;;;;;2.80;1.33;;;6.50;42.60;;;;;;4912916;29;20234;-90
2021/01/19 15:07:13;;;;;;;3.07;1.40;;;7.20;41.90;;;;;;4909828;29;20183;-85
2021/01/19 15:09:39;;;;;;;0.90;0.90;;;7.30;41.50;;;;;;4919910;29;20224;-85
2021/01/19 15:12:31;;;;;;;1.30;1.20;;;7.30;41.90;;;;;;4918984;29;20582;-86
2021/01/19 15:14:58;;;;;;;1.55;1.05;;;7.20;42.30;;;;;;4921751;29;20703;-85
2021/01/19 15:17:37;;;;;;;1.30;1.20;;;7.60;42.30;;;;;;4920592;29;20169;-85
2021/01/19 15:20:03;;;;;;;1.83;1.38;;;7.10;41.90;;;;;;4921661;29;20260;-85
2021/01/19 15:22:51;;;;;;;1.80;1.40;;;7.20;42.10;;;;;;4921846;29;20512;-85
2021/01/19 15:25:17;;;;;;;4.18;1.90;;;7.20;42.40;;;;;;4921091;29;20218;-84
2021/01/19 15:27:43;;;;;;;1.47;1.17;;;7.00;41.20;;;;;;4911460;29;20175;-85
2021/01/19 15:30:23;;;;;;;2.13;1.20;;;7.30;42.00;;;;;;4903313;29;20198;-87
2021/01/19 15:32:50;;;;;;;1.70;1.30;;;7.40;41.80;;;;;;4903302;29;20747;-85
2021/01/19 15:35:17;;;;;;;2.30;1.48;;;7.40;41.70;;;;;;4902355;29;20199;-85
2021/01/19 15:37:45;;;;;;;3.47;1.40;;;7.90;41.80;;;;;;4902363;29;20516;-85
2021/01/19 15:40:12;;;;;;;2.10;1.90;;;8.10;40.50;;;;;;4902353;29;20163;-85
2021/01/19 15:42:37;;;;;;;4.32;2.28;;;8.00;40.00;;;;;;4903148;29;20167;-85
2021/01/19 15:45:12;;;;;;;3.10;2.60;;;8.10;39.90;;;;;;4901809;29;20266;-83
2021/01/19 15:47:40;;;;;;;2.60;2.13;;;8.20;39.80;;;;;;4901831;29;20540;-83
2021/01/19 15:50:10;;;;;;;2.13;1.60;;;8.50;40.10;;;;;;4898176;29;20698;-83
2021/01/19 15:52:36;;;;;;;2.65;1.73;;;8.20;40.40;;;;;;4897780;29;20214;-83
2021/01/19 15:55:03;;;;;;;1.90;1.35;;;8.10;40.00;;;;;;4882772;29;20251;-83
2021/01/19 15:57:31;;;;;;;2.60;1.45;;;8.10;40.60;;;;;;4898557;29;20296;-84
2021/01/19 15:59:57;;;;;;;3.35;2.22;;;7.70;40.90;;;;;;4883187;29;20570;-85
2021/01/19 16:02:23;;;;;;;2.40;2.20;;;7.60;42.00;;;;;;4883633;29;20164;-85
2021/01/19 16:05:16;;;;;;;1.80;1.70;;;7.50;42.50;;;;;;4883997;29;20219;-88
2021/01/19 16:07:43;;;;;;;1.40;1.30;;;7.50;42.20;;;;;;4899734;29;20175;-87
2021/01/19 16:10:33;;;;;;;1.73;1.63;;;7.70;42.20;;;;;;4883818;29;20569;-87
2021/01/19 16:12:58;;;;;;;2.00;1.23;;;7.80;42.80;;;;;;4883824;29;20258;-86
2021/01/19 16:15:24;;;;;;;2.10;1.90;;;7.70;42.10;;;;;;4883528;29;20236;-88
2021/01/19 16:17:50;;;;;;;4.43;3.10;;;7.90;41.50;;;;;;4884021;29;20168;-88
2021/01/19 16:20:30;;;;;;;4.20;2.70;;;7.90;41.70;;;;;;4883919;29;20243;-86
2021/01/19 16:22:56;;;;;;;5.38;4.10;;;7.90;41.70;;;;;;4894025;29;20529;-87
2021/01/19 16:25:21;;;;;;;4.70;3.37;;;7.90;41.60;;;;;;4892492;29;20171;-87
2021/01/19 16:27:48;;;;;;;2.70;2.40;;;7.90;41.70;;;;;;4891455;29;20227;-87
2021/01/19 16:30:14;;;;;;;4.03;3.72;;;8.10;41.80;;;;;;4899134;29;20279;-87
2021/01/19 16:32:40;;;;;;;4.75;4.22;;;7.80;42.80;;;;;;4901534;29;20223;-87
2021/01/19 16:35:06;;;;;;;11.10;10.00;;;7.40;42.90;;;;;;4901569;29;20199;-88
2021/01/19 16:37:32;;;;;;;6.65;6.05;;;7.40;44.00;;;;;;4894030;29;20182;-86
2021/01/19 16:39:57;;;;;;;8.93;6.57;;;7.00;44.50;;;;;;4891689;29;20179;-88
2021/01/19 16:42:23;;;;;;;5.23;4.83;;;6.80;44.60;;;;;;4891612;29;20499;-87
2021/01/19 16:44:50;;;;;;;6.80;5.67;;;7.10;45.20;;;;;;4901797;29;20186;-88
2021/01/19 16:47:16;;;;;;;5.97;4.75;;;6.70;45.20;;;;;;4883754;29;20179;-89
2021/01/19 16:49:41;;;;;;;5.30;4.40;;;6.60;45.20;;;;;;4883876;29;20379;-90
2021/01/19 16:52:10;;;;;;;3.60;3.30;;;6.70;45.10;;;;;;4887112;29;20190;-88
2021/01/19 16:54:36;;;;;;;5.05;4.65;;;6.70;45.40;;;;;;4893286;29;20270;-91
2021/01/19 16:57:24;;;;;;;9.47;7.70;;;6.90;45.60;;;;;;4894238;29;20175;-92
2021/01/19 16:59:49;;;;;;;27.15;18.42;;;6.60;45.20;;;;;;4899106;29;20172;-91
2021/01/19 17:02:19;;;;;;;85.30;48.67;;;6.60;44.70;;;;;;4907083;29;20205;-91
2021/01/19 17:04:46;;;;;;;9.27;6.75;;;7.20;45.80;;;;;;4905733;29;20179;-92
2021/01/19 17:07:12;;;;;;;12.70;11.40;;;6.80;44.70;;;;;;4898338;29;20211;-92
2021/01/19 17:09:37;;;;;;;7.75;6.10;;;6.70;44.60;;;;;;4891743;29;20170;-92
2021/01/19 17:12:10;;;;;;;5.50;5.10;;;7.00;44.20;;;;;;4897173;29;20689;-91
2021/01/19 17:14:36;;;;;;;6.97;4.65;;;7.10;44.70;;;;;;4896605;29;20187;-90
2021/01/19 17:17:17;;;;;;;6.40;5.90;;;6.90;44.30;;;;;;4903436;29;20174;-92
2021/01/19 17:19:45;;;;;;;5.20;4.80;;;6.80;43.70;;;;;;4888622;29;20442;-91
2021/01/19 17:22:11;;;;;;;6.13;5.63;;;7.00;43.70;;;;;;4893923;29;20170;-90
2021/01/19 17:24:37;;;;;;;6.13;5.55;;;6.90;43.60;;;;;;4900391;29;20175;-91
2021/01/19 17:27:09;;;;;;;6.03;5.43;;;7.50;43.40;;;;;;4903078;29;20510;-90
2021/01/19 17:29:35;;;;;;;5.80;5.20;;;7.40;42.60;;;;;;4891161;29;20174;-89
2021/01/19 17:32:01;;;;;;;6.73;6.00;;;7.10;41.90;;;;;;4886062;29;20168;-89
2021/01/19 17:34:30;;;;;;;6.28;5.68;;;7.80;41.90;;;;;;4891260;29;20188;-89
2021/01/19 17:37:02;;;;;;;5.95;5.30;;;8.20;41.90;;;;;;4897029;29;20180;-90
2021/01/19 17:39:29;;;;;;;8.73;5.78;;;8.10;40.80;;;;;;4906660;29;20195;-92
2021/01/19 17:41:56;;;;;;;4.32;3.92;;;8.20;40.00;;;;;;4908693;29;20183;-89
2021/01/19 17:44:28;;;;;;;3.35;2.70;;;8.10;40.40;;;;;;4899662;29;20282;-91
2021/01/19 17:46:54;;;;;;;2.50;2.22;;;8.30;40.90;;;;;;4889148;29;20196;-91
2021/01/19 17:49:20;;;;;;;3.00;2.40;;;8.40;40.90;;;;;;4888942;29;20228;-91
2021/01/19 17:51:47;;;;;;;2.30;1.90;;;8.30;41.20;;;;;;4889052;29;20502;-91
2021/01/19 17:54:12;;;;;;;3.03;2.22;;;8.30;41.20;;;;;;4889696;29;20950;-92
2021/01/19 17:56:39;;;;;;;3.40;2.40;;;8.30;40.90;;;;;;4889316;29;20210;-90
2021/01/19 17:59:05;;;;;;;6.05;3.85;;;8.30;41.50;;;;;;4889334;29;20260;-91
2021/01/19 18:01:33;;;;;;;7.20;3.80;;;8.90;42.20;;;;;;4889010;29;20166;-91
2021/01/19 18:03:59;;;;;;;3.58;2.42;;;8.40;41.40;;;;;;4888822;29;20178;-90
2021/01/19 18:06:30;;;;;;;4.40;3.43;;;8.40;41.40;;;;;;4889350;29;20168;-92
2021/01/19 18:09:00;;;;;;;7.85;4.28;;;8.40;42.00;;;;;;4899142;29;20170;-91
2021/01/19 18:11:27;;;;;;;7.35;4.80;;;8.30;41.90;;;;;;4893096;29;20184;-90
2021/01/19 18:13:54;;;;;;;5.75;4.50;;;8.40;41.50;;;;;;4899297;29;20205;-92
2021/01/19 18:16:33;;;;;;;6.97;6.15;;;8.00;41.60;;;;;;4908518;29;20602;-92
2021/01/19 18:19:01;;;;;;;10.18;6.15;;;8.40;42.00;;;;;;4908503;29;20159;-90
2021/01/19 18:21:27;;;;;;;13.32;11.00;;;8.50;41.10;;;;;;4907998;29;20159;-91
2021/01/19 18:23:54;;;;;;;15.07;13.48;;;8.50;41.40;;;;;;4906897;29;20163;-91
2021/01/19 18:26:33;;;;;;;12.13;10.88;;;8.40;41.20;;;;;;4889135;29;20534;-91
2021/01/19 18:28:59;;;;;;;9.88;8.95;;;8.00;40.90;;;;;;4904858;29;20227;-90
2021/01/19 18:31:25;;;;;;;7.10;4.87;;;8.10;41.80;;;;;;4888756;29;20187;-90
2021/01/19 18:33:50;;;;;;;9.63;6.30;;;8.40;42.70;;;;;;4888769;29;20236;-91
2021/01/19 18:36:23;;;;;;;8.67;5.40;;;7.90;41.90;;;;;;4888689;29;20168;-91
2021/01/19 18:38:48;;;;;;;7.30;4.70;;;8.40;42.00;;;;;;4907605;29;20175;-90
2021/01/19 18:41:23;;;;;;;5.33;4.30;;;8.40;42.20;;;;;;4907363;29;20167;-91
2021/01/19 18:43:49;;;;;;;10.82;9.73;;;7.90;42.20;;;;;;4899051;29;20528;-91
2021/01/19 18:46:14;;;;;;;8.93;8.13;;;8.40;42.70;;;;;;4898726;29;20254;-92
2021/01/19 18:48:41;;;;;;;9.23;8.23;;;7.60;41.40;;;;;;4906752;29;20263;-92
2021/01/19 18:51:18;;;;;;;15.98;12.90;;;7.90;41.80;;;;;;4920461;29;20223;-92
2021/01/19 18:53:44;;;;;;;13.82;12.30;;;8.20;41.80;;;;;;4905609;29;20175;-92
2021/01/19 18:56:24;;;;;;;14.23;11.87;;;8.40;41.80;;;;;;4905824;29;20178;-90
2021/01/19 18:58:55;;;;;;;16.63;13.23;;;8.30;42.10;;;;;;4905526;29;20202;-90
2021/01/19 19:01:21;;;;;;;12.90;11.63;;;8.40;41.10;;;;;;4905672;29;20240;-91
2021/01/19 19:03:48;;;;;;;12.35;10.50;;;8.30;40.60;;;;;;4905805;29;20175;-92
2021/01/19 19:06:25;;;;;;;9.55;8.65;;;8.20;39.80;;;;;;4905921;29;20175;-92
2021/01/19 19:08:52;;;;;;;10.18;9.20;;;8.10;40.10;;;;;;4906758;29;20178;-94
2021/01/19 19:11:36;;;;;;;9.75;8.85;;;8.10;39.80;;;;;;4906545;29;20183;-93
2021/01/19 19:14:05;;;;;;;8.75;7.40;;;8.10;40.20;;;;;;4906701;29;20579;-91
2021/01/19 19:16:36;;;;;;;8.85;7.95;;;8.60;40.20;;;;;;4906404;29;20171;-91
2021/01/19 19:19:08;;;;;;;8.35;7.22;;;8.40;40.00;;;;;;4906004;29;20763;-92
2021/01/19 19:24:56;;;;;;;8.80;7.90;;;8.20;41.20;;;;;;4924182;29;20423;-92
2021/01/19 19:27:56;;;;;;;10.00;9.00;;;8.30;40.90;;;;;;4907890;29;20226;-92
2021/01/19 19:30:24;;;;;;;12.90;10.18;;;7.90;40.20;;;;;;4879890;29;20183;-92
2021/01/19 19:33:01;;;;;;;9.73;8.73;;;8.30;40.50;;;;;;4905516;29;20170;-91
2021/01/19 19:35:26;;;;;;;10.73;9.68;;;8.50;40.90;;;;;;4905479;29;20206;-94
2021/01/19 19:37:56;;;;;;;10.50;9.40;;;7.80;40.60;;;;;;4906880;29;20175;-92
2021/01/19 19:40:22;;;;;;;10.40;9.25;;;8.00;41.30;;;;;;4906032;29;20174;-92
2021/01/19 19:42:49;;;;;;;10.40;9.30;;;7.70;41.70;;;;;;4905214;29;20419;-91
2021/01/19 19:45:15;;;;;;;10.80;8.45;;;8.00;42.20;;;;;;4905886;29;20182;-92
2021/01/19 19:47:46;;;;;;;11.10;8.80;;;7.70;42.50;;;;;;4904923;29;20171;-91
2021/01/19 19:50:19;;;;;;;13.73;8.57;;;7.80;42.10;;;;;;4905523;29;20329;-91
2021/01/19 19:52:44;;;;;;;12.05;10.70;;;7.40;41.60;;;;;;4906676;29;20172;-94
2021/01/19 19:55:28;;;;;;;11.47;8.87;;;7.20;41.60;;;;;;4905664;29;20658;-91
2021/01/19 19:57:53;;;;;;;10.05;8.23;;;7.40;42.60;;;;;;4905125;29;20636;-92
2021/01/19 20:03:42;;;;;;;13.15;11.57;;;7.40;43.90;;;;;;4921912;29;20165;-93
2021/01/19 20:06:08;;;;;;;16.20;13.20;;;7.20;44.00;;;;;;4904998;29;20163;-95
2021/01/19 20:08:36;;;;;;;15.00;12.38;;;6.90;44.30;;;;;;4905681;29;20210;-93
2021/01/19 20:11:02;;;;;;;21.05;15.25;;;6.70;44.90;;;;;;4900063;29;20259;-95
2021/01/19 20:13:28;;;;;;;20.93;16.33;;;6.90;44.90;;;;;;4885632;29;20211;-94
2021/01/19 20:15:54;;;;;;;24.37;17.53;;;6.90;45.10;;;;;;4894824;29;20203;-91
2021/01/19 20:18:23;;;;;;;21.63;17.63;;;6.60;44.30;;;;;;4899553;29;20547;-91
2021/01/19 20:20:52;;;;;;;26.73;19.50;;;7.00;44.00;;;;;;4885848;29;20168;-93
2021/01/19 20:23:18;;;;;;;24.95;18.80;;;6.90;44.50;;;;;;4886404;29;20440;-92
2021/01/19 20:25:50;;;;;;;23.85;19.27;;;6.70;44.50;;;;;;4885562;29;20443;-93
2021/01/19 20:28:16;;;;;;;16.13;14.20;;;7.00;43.90;;;;;;4885238;29;20544;-93
2021/01/19 20:30:42;;;;;;;21.37;16.20;;;6.90;44.00;;;;;;4897201;29;20300;-93
2021/01/19 20:33:21;;;;;;;22.43;16.60;;;7.00;44.40;;;;;;4904569;29;20997;-93
2021/01/19 20:35:47;;;;;;;22.80;17.05;;;6.80;45.10;;;;;;4904289;29;20809;-93
2021/01/19 20:38:32;;;;;;;25.13;19.27;;;6.60;45.40;;;;;;4904117;29;20435;-93
2021/01/19 20:40:58;;;;;;;23.73;18.75;;;6.30;44.60;;;;;;4904529;29;20171;-93
2021/01/19 20:43:23;;;;;;;22.53;16.40;;;6.10;44.30;;;;;;4905232;29;20170;-93
2021/01/19 20:45:49;;;;;;;20.87;15.73;;;6.50;44.70;;;;;;4904267;29;20167;-92
2021/01/19 20:48:16;;;;;;;21.80;16.83;;;6.30;44.40;;;;;;4892805;29;20258;-93
2021/01/19 20:50:48;;;;;;;22.90;16.45;;;6.50;44.40;;;;;;4897772;29;20225;-92
2021/01/19 20:53:13;;;;;;;22.58;17.48;;;6.50;44.60;;;;;;4890525;29;20251;-93
2021/01/19 20:55:39;;;;;;;20.00;15.90;;;5.80;44.30;;;;;;4890153;29;20191;-92
2021/01/19 20:58:05;;;;;;;20.97;16.17;;;5.60;44.40;;;;;;4892855;29;20172;-93
2021/01/19 21:03:55;;;;;;;23.17;17.25;;;6.10;45.50;;;;;;4921856;29;20467;-95
2021/01/19 21:09:43;;;;;;;20.20;17.02;;;6.00;46.20;;;;;;4922922;29;20166;-95
2021/01/19 21:15:30;;;;;;;20.08;16.77;;;5.60;46.60;;;;;;4924707;29;20450;-95
2021/01/19 21:17:57;;;;;;;20.77;15.33;;;4.90;46.80;;;;;;4908156;29;20171;-92
2021/01/19 21:20:23;;;;;;;22.05;16.00;;;5.00;47.30;;;;;;4907823;29;20170;-93
2021/01/19 21:23:04;;;;;;;18.42;15.48;;;6.00;48.40;;;;;;4908421;29;20648;-93
2021/01/19 21:25:30;;;;;;;23.77;17.60;;;5.30;47.20;;;;;;4908105;29;20435;-94
2021/01/19 21:28:18;;;;;;;26.63;18.60;;;5.50;47.60;;;;;;4908317;29;20785;-93
2021/01/19 21:30:45;;;;;;;22.05;15.85;;;5.40;47.40;;;;;;4907921;29;20181;-95
2021/01/19 21:33:11;;;;;;;22.52;16.55;;;4.90;46.70;;;;;;4908648;29;20171;-93
2021/01/19 21:35:37;;;;;;;11.40;9.85;;;5.50;46.90;;;;;;4907797;29;20202;-92
2021/01/19 21:38:11;;;;;;;13.73;10.10;;;5.40;46.80;;;;;;4904865;29;20210;-94
2021/01/19 21:40:37;;;;;;;9.13;7.35;;;5.80;47.70;;;;;;4906138;29;20179;-93